Dryden, Maine
Current Conditions -  °F | °C
As of 9:35 PM on Wednesday 22 Oct 2014 (Local Time) from KWVL Reporting Station
Overcast Overcast  
Wind Chill: 37°   Ceiling: 1000
Heat Index: 45°   Visibility: 9mi
Dew Point: 39°   Wind: 16mph
Humidity: 81%   Direction: 30°NNE
Pressure: 30.08"   Gusts: 28mph
Location:  44.59°N, 70.21°W
Report Text: KWVL 230135Z 03014G24KT 010V080 9SM OVC010 07/04 A3008 RMK AO1
Loading
Personal Weather Stations






























Interactive Weather Map
Tropical Storm Tracking
New forecast layout! Learn more

10-Day Weather Forecast

Advertisements
Track Severe Weather on mobile